sensor_id;sensor_type;location;lat;lon;timestamp;temperature;humidity
25092;DHT22;13082;52.374;4.946;2023-02-04T00:01:55;9.30;99.90
25092;DHT22;13082;52.374;4.946;2023-02-04T00:04:20;9.30;99.90
25092;DHT22;13082;52.374;4.946;2023-02-04T00:06:46;9.20;99.90
25092;DHT22;13082;52.374;4.946;2023-02-04T00:09:11;9.20;99.90
25092;DHT22;13082;52.374;4.946;2023-02-04T00:11:37;9.20;99.90
25092;DHT22;13082;52.374;4.946;2023-02-04T00:14:03;9.10;99.90
25092;DHT22;13082;52.374;4.946;2023-02-04T00:16:28;9.10;99.90
25092;DHT22;13082;52.374;4.946;2023-02-04T00:18:54;9.10;99.90
25092;DHT22;13082;52.374;4.946;2023-02-04T00:21:20;9.10;99.90
25092;DHT22;13082;52.374;4.946;2023-02-04T00:23:45;9.10;99.90
25092;DHT22;13082;52.374;4.946;2023-02-04T00:26:11;9.10;99.90
25092;DHT22;13082;52.374;4.946;2023-02-04T00:28:36;9.20;99.90
25092;DHT22;13082;52.374;4.946;2023-02-04T00:31:02;9.20;99.90
25092;DHT22;13082;52.374;4.946;2023-02-04T00:33:27;9.20;99.90
25092;DHT22;13082;52.374;4.946;2023-02-04T00:35:53;9.30;99.90
25092;DHT22;13082;52.374;4.946;2023-02-04T00:38:19;9.30;99.90
25092;DHT22;13082;52.374;4.946;2023-02-04T00:40:44;9.20;99.90
25092;DHT22;13082;52.374;4.946;2023-02-04T00:43:10;9.20;99.90
25092;DHT22;13082;52.374;4.946;2023-02-04T00:45:35;9.20;99.90
25092;DHT22;13082;52.374;4.946;2023-02-04T00:48:01;9.20;99.90
25092;DHT22;13082;52.374;4.946;2023-02-04T00:50:27;9.10;99.90
25092;DHT22;13082;52.374;4.946;2023-02-04T00:52:52;9.10;99.90
25092;DHT22;13082;52.374;4.946;2023-02-04T00:55:18;9.10;99.90
25092;DHT22;13082;52.374;4.946;2023-02-04T00:57:44;9.10;99.90
25092;DHT22;13082;52.374;4.946;2023-02-04T01:00:13;9.10;99.90
25092;DHT22;13082;52.374;4.946;2023-02-04T01:02:38;9.10;99.90
25092;DHT22;13082;52.374;4.946;2023-02-04T01:05:08;9.10;99.90
25092;DHT22;13082;52.374;4.946;2023-02-04T01:07:34;9.10;99.90
25092;DHT22;13082;52.374;4.946;2023-02-04T01:10:00;9.00;99.90
25092;DHT22;13082;52.374;4.946;2023-02-04T01:12:26;9.00;99.90
25092;DHT22;13082;52.374;4.946;2023-02-04T01:14:53;9.00;99.90
25092;DHT22;13082;52.374;4.946;2023-02-04T01:17:19;9.10;99.90
25092;DHT22;13082;52.374;4.946;2023-02-04T01:19:45;9.00;99.90
25092;DHT22;13082;52.374;4.946;2023-02-04T01:22:11;9.00;99.90
25092;DHT22;13082;52.374;4.946;2023-02-04T01:24:37;9.00;99.90
25092;DHT22;13082;52.374;4.946;2023-02-04T01:27:02;9.00;99.90
25092;DHT22;13082;52.374;4.946;2023-02-04T01:29:28;9.00;99.90
25092;DHT22;13082;52.374;4.946;2023-02-04T01:31:54;9.00;99.90
25092;DHT22;13082;52.374;4.946;2023-02-04T01:34:20;9.00;99.90
25092;DHT22;13082;52.374;4.946;2023-02-04T01:36:45;9.00;99.90
25092;DHT22;13082;52.374;4.946;2023-02-04T01:39:11;9.00;99.90
25092;DHT22;13082;52.374;4.946;2023-02-04T01:41:38;9.00;99.90
25092;DHT22;13082;52.374;4.946;2023-02-04T01:44:04;8.90;99.90
25092;DHT22;13082;52.374;4.946;2023-02-04T01:46:29;8.90;99.90
25092;DHT22;13082;52.374;4.946;2023-02-04T01:48:55;8.90;99.90
25092;DHT22;13082;52.374;4.946;2023-02-04T01:51:25;9.00;99.90
25092;DHT22;13082;52.374;4.946;2023-02-04T01:53:53;9.00;99.90
25092;DHT22;13082;52.374;4.946;2023-02-04T01:56:22;9.00;99.90
25092;DHT22;13082;52.374;4.946;2023-02-04T01:58:48;9.00;99.90
25092;DHT22;13082;52.374;4.946;2023-02-04T02:04:13;9.00;99.90
25092;DHT22;13082;52.374;4.946;2023-02-04T02:06:43;9.00;99.90
25092;DHT22;13082;52.374;4.946;2023-02-04T02:09:09;9.00;99.90
25092;DHT22;13082;52.374;4.946;2023-02-04T02:11:35;9.00;99.90
25092;DHT22;13082;52.374;4.946;2023-02-04T02:14:01;9.00;99.90
25092;DHT22;13082;52.374;4.946;2023-02-04T02:16:27;9.00;99.90
25092;DHT22;13082;52.374;4.946;2023-02-04T02:18:53;9.00;99.90
25092;DHT22;13082;52.374;4.946;2023-02-04T02:21:28;9.00;99.90
25092;DHT22;13082;52.374;4.946;2023-02-04T02:23:55;8.90;99.90
25092;DHT22;13082;52.374;4.946;2023-02-04T02:26:22;8.90;99.90
25092;DHT22;13082;52.374;4.946;2023-02-04T02:28:49;8.90;99.90
25092;DHT22;13082;52.374;4.946;2023-02-04T02:31:17;8.90;99.90
25092;DHT22;13082;52.374;4.946;2023-02-04T02:33:43;8.80;99.90
25092;DHT22;13082;52.374;4.946;2023-02-04T02:36:09;8.80;99.90
25092;DHT22;13082;52.374;4.946;2023-02-04T02:38:35;8.90;99.90
25092;DHT22;13082;52.374;4.946;2023-02-04T02:41:01;8.90;99.90
25092;DHT22;13082;52.374;4.946;2023-02-04T02:43:28;8.90;99.90
25092;DHT22;13082;52.374;4.946;2023-02-04T02:45:56;8.90;99.90
25092;DHT22;13082;52.374;4.946;2023-02-04T02:48:23;8.90;99.90
25092;DHT22;13082;52.374;4.946;2023-02-04T02:50:48;8.80;99.90
25092;DHT22;13082;52.374;4.946;2023-02-04T02:53:16;8.80;99.90
25092;DHT22;13082;52.374;4.946;2023-02-04T02:55:43;8.80;99.90
25092;DHT22;13082;52.374;4.946;2023-02-04T02:58:23;8.80;99.90
25092;DHT22;13082;52.374;4.946;2023-02-04T03:00:50;8.80;99.90
25092;DHT22;13082;52.374;4.946;2023-02-04T03:03:22;8.80;99.90
25092;DHT22;13082;52.374;4.946;2023-02-04T03:05:53;8.80;99.90
25092;DHT22;13082;52.374;4.946;2023-02-04T03:08:20;8.90;99.90
25092;DHT22;13082;52.374;4.946;2023-02-04T03:10:46;8.90;99.90
25092;DHT22;13082;52.374;4.946;2023-02-04T03:13:13;8.90;99.90
25092;DHT22;13082;52.374;4.946;2023-02-04T03:15:42;9.00;99.90
25092;DHT22;13082;52.374;4.946;2023-02-04T03:18:08;8.90;99.90
25092;DHT22;13082;52.374;4.946;2023-02-04T03:20:34;8.90;99.90
25092;DHT22;13082;52.374;4.946;2023-02-04T03:23:00;8.90;99.90
25092;DHT22;13082;52.374;4.946;2023-02-04T03:25:26;8.90;99.90
25092;DHT22;13082;52.374;4.946;2023-02-04T03:27:53;8.80;99.90
25092;DHT22;13082;52.374;4.946;2023-02-04T03:30:20;8.80;99.90
25092;DHT22;13082;52.374;4.946;2023-02-04T03:32:46;8.80;99.90
25092;DHT22;13082;52.374;4.946;2023-02-04T03:35:12;8.80;99.90
25092;DHT22;13082;52.374;4.946;2023-02-04T03:37:37;8.80;99.90
25092;DHT22;13082;52.374;4.946;2023-02-04T03:40:04;8.80;99.90
25092;DHT22;13082;52.374;4.946;2023-02-04T03:42:29;8.70;99.90
25092;DHT22;13082;52.374;4.946;2023-02-04T03:44:55;8.60;99.90
25092;DHT22;13082;52.374;4.946;2023-02-04T03:47:21;8.60;99.90
25092;DHT22;13082;52.374;4.946;2023-02-04T03:49:46;8.60;99.90
25092;DHT22;13082;52.374;4.946;2023-02-04T03:52:12;8.60;99.90
25092;DHT22;13082;52.374;4.946;2023-02-04T03:54:37;8.50;99.90
25092;DHT22;13082;52.374;4.946;2023-02-04T03:57:03;8.50;99.90
25092;DHT22;13082;52.374;4.946;2023-02-04T03:59:29;8.50;99.90
25092;DHT22;13082;52.374;4.946;2023-02-04T04:01:54;8.40;99.90
25092;DHT22;13082;52.374;4.946;2023-02-04T04:04:20;8.40;99.90
25092;DHT22;13082;52.374;4.946;2023-02-04T04:06:45;8.40;99.90
25092;DHT22;13082;52.374;4.946;2023-02-04T04:09:11;8.40;99.90
25092;DHT22;13082;52.374;4.946;2023-02-04T04:11:36;8.50;99.90
25092;DHT22;13082;52.374;4.946;2023-02-04T04:14:02;8.40;99.90
25092;DHT22;13082;52.374;4.946;2023-02-04T04:16:28;8.40;99.90
25092;DHT22;13082;52.374;4.946;2023-02-04T04:18:54;8.40;99.90
25092;DHT22;13082;52.374;4.946;2023-02-04T04:21:20;8.30;99.90
25092;DHT22;13082;52.374;4.946;2023-02-04T04:23:46;8.40;99.90
25092;DHT22;13082;52.374;4.946;2023-02-04T04:26:12;8.40;99.90
25092;DHT22;13082;52.374;4.946;2023-02-04T04:28:38;8.50;99.90
25092;DHT22;13082;52.374;4.946;2023-02-04T04:31:03;8.40;99.90
25092;DHT22;13082;52.374;4.946;2023-02-04T04:33:29;8.40;99.90
25092;DHT22;13082;52.374;4.946;2023-02-04T04:35:55;8.40;99.90
25092;DHT22;13082;52.374;4.946;2023-02-04T04:38:20;8.40;99.90
25092;DHT22;13082;52.374;4.946;2023-02-04T04:40:46;8.40;99.90
25092;DHT22;13082;52.374;4.946;2023-02-04T04:43:11;8.40;99.90
25092;DHT22;13082;52.374;4.946;2023-02-04T04:45:37;8.40;99.90
25092;DHT22;13082;52.374;4.946;2023-02-04T04:48:03;8.40;99.90
25092;DHT22;13082;52.374;4.946;2023-02-04T04:50:29;8.40;99.90
25092;DHT22;13082;52.374;4.946;2023-02-04T04:52:54;8.50;99.90
25092;DHT22;13082;52.374;4.946;2023-02-04T04:55:20;8.50;99.90
25092;DHT22;13082;52.374;4.946;2023-02-04T04:57:45;8.50;99.90
25092;DHT22;13082;52.374;4.946;2023-02-04T05:00:15;8.60;99.90
25092;DHT22;13082;52.374;4.946;2023-02-04T05:02:41;8.50;99.90
25092;DHT22;13082;52.374;4.946;2023-02-04T05:05:08;8.50;99.90
25092;DHT22;13082;52.374;4.946;2023-02-04T05:07:34;8.50;99.90
25092;DHT22;13082;52.374;4.946;2023-02-04T05:09:59;8.40;99.90
25092;DHT22;13082;52.374;4.946;2023-02-04T05:12:25;8.40;99.90
25092;DHT22;13082;52.374;4.946;2023-02-04T05:14:50;8.30;99.90
25092;DHT22;13082;52.374;4.946;2023-02-04T05:17:16;8.30;99.90
25092;DHT22;13082;52.374;4.946;2023-02-04T05:19:41;8.30;99.90
25092;DHT22;13082;52.374;4.946;2023-02-04T05:22:07;8.20;99.90
25092;DHT22;13082;52.374;4.946;2023-02-04T05:24:33;8.20;99.90
25092;DHT22;13082;52.374;4.946;2023-02-04T05:26:58;8.10;99.90
25092;DHT22;13082;52.374;4.946;2023-02-04T05:29:24;8.10;99.90
25092;DHT22;13082;52.374;4.946;2023-02-04T05:31:49;8.10;99.90
25092;DHT22;13082;52.374;4.946;2023-02-04T05:34:15;8.10;99.90
25092;DHT22;13082;52.374;4.946;2023-02-04T05:36:41;8.20;99.90
25092;DHT22;13082;52.374;4.946;2023-02-04T05:39:06;8.30;99.90
25092;DHT22;13082;52.374;4.946;2023-02-04T05:41:32;8.30;99.90
25092;DHT22;13082;52.374;4.946;2023-02-04T05:43:57;8.40;99.90
25092;DHT22;13082;52.374;4.946;2023-02-04T05:46:23;8.40;99.90
25092;DHT22;13082;52.374;4.946;2023-02-04T05:48:49;8.50;99.90
25092;DHT22;13082;52.374;4.946;2023-02-04T05:51:14;8.50;99.90
25092;DHT22;13082;52.374;4.946;2023-02-04T05:53:40;8.50;99.90
25092;DHT22;13082;52.374;4.946;2023-02-04T05:56:06;8.60;99.90
25092;DHT22;13082;52.374;4.946;2023-02-04T05:58:31;8.60;99.90
25092;DHT22;13082;52.374;4.946;2023-02-04T06:00:59;8.50;99.90
25092;DHT22;13082;52.374;4.946;2023-02-04T06:03:26;8.40;99.90
25092;DHT22;13082;52.374;4.946;2023-02-04T06:05:51;8.50;99.90
25092;DHT22;13082;52.374;4.946;2023-02-04T06:08:17;8.50;99.90
25092;DHT22;13082;52.374;4.946;2023-02-04T06:10:43;8.50;99.90
25092;DHT22;13082;52.374;4.946;2023-02-04T06:13:08;8.50;99.90
25092;DHT22;13082;52.374;4.946;2023-02-04T06:15:34;8.60;99.90
25092;DHT22;13082;52.374;4.946;2023-02-04T06:17:59;8.60;99.90
25092;DHT22;13082;52.374;4.946;2023-02-04T06:20:25;8.60;99.90
25092;DHT22;13082;52.374;4.946;2023-02-04T06:22:51;8.50;99.90
25092;DHT22;13082;52.374;4.946;2023-02-04T06:25:19;8.60;99.90
25092;DHT22;13082;52.374;4.946;2023-02-04T06:27:45;8.60;99.90
25092;DHT22;13082;52.374;4.946;2023-02-04T06:30:11;8.60;99.90
25092;DHT22;13082;52.374;4.946;2023-02-04T06:32:37;8.70;99.90
25092;DHT22;13082;52.374;4.946;2023-02-04T06:35:02;8.70;99.90
25092;DHT22;13082;52.374;4.946;2023-02-04T06:37:28;8.70;99.90
25092;DHT22;13082;52.374;4.946;2023-02-04T06:39:54;8.70;99.90
25092;DHT22;13082;52.374;4.946;2023-02-04T06:42:22;8.70;99.90
25092;DHT22;13082;52.374;4.946;2023-02-04T06:44:49;8.70;99.90
25092;DHT22;13082;52.374;4.946;2023-02-04T06:47:15;8.70;99.90
25092;DHT22;13082;52.374;4.946;2023-02-04T06:49:41;8.80;99.90
25092;DHT22;13082;52.374;4.946;2023-02-04T06:52:06;8.80;99.90
25092;DHT22;13082;52.374;4.946;2023-02-04T06:54:32;8.80;99.90
25092;DHT22;13082;52.374;4.946;2023-02-04T06:56:57;8.80;99.90
25092;DHT22;13082;52.374;4.946;2023-02-04T06:59:32;8.70;99.90
25092;DHT22;13082;52.374;4.946;2023-02-04T07:01:57;8.70;99.90
25092;DHT22;13082;52.374;4.946;2023-02-04T07:04:23;8.60;99.90
25092;DHT22;13082;52.374;4.946;2023-02-04T07:06:48;8.60;99.90
25092;DHT22;13082;52.374;4.946;2023-02-04T07:09:14;8.60;99.90
25092;DHT22;13082;52.374;4.946;2023-02-04T07:11:40;8.50;99.90
25092;DHT22;13082;52.374;4.946;2023-02-04T07:14:05;8.50;99.90
25092;DHT22;13082;52.374;4.946;2023-02-04T07:16:31;8.40;99.90
25092;DHT22;13082;52.374;4.946;2023-02-04T07:18:56;8.40;99.90
25092;DHT22;13082;52.374;4.946;2023-02-04T07:21:22;8.40;99.90
25092;DHT22;13082;52.374;4.946;2023-02-04T07:23:47;8.40;99.90
25092;DHT22;13082;52.374;4.946;2023-02-04T07:26:13;8.40;99.90
25092;DHT22;13082;52.374;4.946;2023-02-04T07:28:39;8.40;99.90
25092;DHT22;13082;52.374;4.946;2023-02-04T07:31:05;8.40;99.90
25092;DHT22;13082;52.374;4.946;2023-02-04T07:33:31;8.40;99.90
25092;DHT22;13082;52.374;4.946;2023-02-04T07:35:57;8.50;99.90
25092;DHT22;13082;52.374;4.946;2023-02-04T07:38:22;8.50;99.90
25092;DHT22;13082;52.374;4.946;2023-02-04T07:40:48;8.50;99.90
25092;DHT22;13082;52.374;4.946;2023-02-04T07:43:13;8.50;99.90
25092;DHT22;13082;52.374;4.946;2023-02-04T07:45:40;8.50;99.90
25092;DHT22;13082;52.374;4.946;2023-02-04T07:48:05;8.40;99.90
25092;DHT22;13082;52.374;4.946;2023-02-04T07:50:31;8.40;99.90
25092;DHT22;13082;52.374;4.946;2023-02-04T07:52:56;8.50;99.90
25092;DHT22;13082;52.374;4.946;2023-02-04T07:55:22;8.40;99.90
25092;DHT22;13082;52.374;4.946;2023-02-04T07:57:48;8.50;99.90
25092;DHT22;13082;52.374;4.946;2023-02-04T08:00:13;8.40;99.90
25092;DHT22;13082;52.374;4.946;2023-02-04T08:02:40;8.50;99.90
25092;DHT22;13082;52.374;4.946;2023-02-04T08:05:07;8.50;99.90
25092;DHT22;13082;52.374;4.946;2023-02-04T08:07:32;8.50;99.90
25092;DHT22;13082;52.374;4.946;2023-02-04T08:09:58;8.50;99.90
25092;DHT22;13082;52.374;4.946;2023-02-04T08:12:23;8.50;99.90
25092;DHT22;13082;52.374;4.946;2023-02-04T08:14:49;8.40;99.90
25092;DHT22;13082;52.374;4.946;2023-02-04T08:17:15;8.40;99.90
25092;DHT22;13082;52.374;4.946;2023-02-04T08:19:40;8.40;99.90
25092;DHT22;13082;52.374;4.946;2023-02-04T08:22:06;8.40;99.90
25092;DHT22;13082;52.374;4.946;2023-02-04T08:24:31;8.30;99.90
25092;DHT22;13082;52.374;4.946;2023-02-04T08:26:57;8.30;99.90
25092;DHT22;13082;52.374;4.946;2023-02-04T08:29:23;8.30;99.90
25092;DHT22;13082;52.374;4.946;2023-02-04T08:31:50;8.30;99.90
25092;DHT22;13082;52.374;4.946;2023-02-04T08:34:16;8.20;99.90
25092;DHT22;13082;52.374;4.946;2023-02-04T08:36:41;8.20;99.90
25092;DHT22;13082;52.374;4.946;2023-02-04T08:39:09;8.20;99.90
25092;DHT22;13082;52.374;4.946;2023-02-04T08:41:34;8.20;99.90
25092;DHT22;13082;52.374;4.946;2023-02-04T08:44:00;8.20;99.90
25092;DHT22;13082;52.374;4.946;2023-02-04T08:46:26;8.30;99.90
25092;DHT22;13082;52.374;4.946;2023-02-04T08:48:52;8.30;99.90
25092;DHT22;13082;52.374;4.946;2023-02-04T08:51:17;8.30;99.90
25092;DHT22;13082;52.374;4.946;2023-02-04T08:53:43;8.30;99.90
25092;DHT22;13082;52.374;4.946;2023-02-04T08:56:09;8.30;99.90
25092;DHT22;13082;52.374;4.946;2023-02-04T08:58:40;8.30;99.90
25092;DHT22;13082;52.374;4.946;2023-02-04T09:01:05;8.40;99.90
25092;DHT22;13082;52.374;4.946;2023-02-04T09:03:31;8.40;99.90
25092;DHT22;13082;52.374;4.946;2023-02-04T09:05:57;8.50;99.90
25092;DHT22;13082;52.374;4.946;2023-02-04T09:08:22;8.50;99.90
25092;DHT22;13082;52.374;4.946;2023-02-04T09:10:48;8.50;99.90
25092;DHT22;13082;52.374;4.946;2023-02-04T09:13:14;8.60;99.90
25092;DHT22;13082;52.374;4.946;2023-02-04T09:15:39;8.60;99.90
25092;DHT22;13082;52.374;4.946;2023-02-04T09:18:05;8.70;99.90
25092;DHT22;13082;52.374;4.946;2023-02-04T09:20:39;8.70;99.90
25092;DHT22;13082;52.374;4.946;2023-02-04T09:23:05;8.70;99.90
25092;DHT22;13082;52.374;4.946;2023-02-04T09:25:35;8.70;99.90
25092;DHT22;13082;52.374;4.946;2023-02-04T09:28:01;8.80;99.90
25092;DHT22;13082;52.374;4.946;2023-02-04T09:30:26;8.80;99.90
25092;DHT22;13082;52.374;4.946;2023-02-04T09:32:52;8.80;99.90
25092;DHT22;13082;52.374;4.946;2023-02-04T09:35:17;8.80;99.90
25092;DHT22;13082;52.374;4.946;2023-02-04T09:37:43;8.90;99.90
25092;DHT22;13082;52.374;4.946;2023-02-04T09:40:13;8.90;99.90
25092;DHT22;13082;52.374;4.946;2023-02-04T09:42:41;8.90;99.90
25092;DHT22;13082;52.374;4.946;2023-02-04T09:45:14;8.90;99.90
25092;DHT22;13082;52.374;4.946;2023-02-04T09:47:40;8.90;99.90
25092;DHT22;13082;52.374;4.946;2023-02-04T09:50:12;8.90;99.90
25092;DHT22;13082;52.374;4.946;2023-02-04T09:52:38;8.90;99.90
25092;DHT22;13082;52.374;4.946;2023-02-04T09:55:15;8.80;99.90
25092;DHT22;13082;52.374;4.946;2023-02-04T09:57:41;8.80;99.90
25092;DHT22;13082;52.374;4.946;2023-02-04T10:00:17;8.80;99.90
25092;DHT22;13082;52.374;4.946;2023-02-04T10:02:43;8.80;99.90
25092;DHT22;13082;52.374;4.946;2023-02-04T10:05:15;8.90;99.90
25092;DHT22;13082;52.374;4.946;2023-02-04T10:07:41;8.90;99.90
25092;DHT22;13082;52.374;4.946;2023-02-04T10:10:16;9.00;99.90
25092;DHT22;13082;52.374;4.946;2023-02-04T10:12:43;9.00;99.90
25092;DHT22;13082;52.374;4.946;2023-02-04T10:15:17;9.00;99.90
25092;DHT22;13082;52.374;4.946;2023-02-04T10:17:48;9.00;99.90
25092;DHT22;13082;52.374;4.946;2023-02-04T10:20:20;9.00;99.90
25092;DHT22;13082;52.374;4.946;2023-02-04T10:22:47;9.00;99.90
25092;DHT22;13082;52.374;4.946;2023-02-04T10:25:16;9.10;99.90
25092;DHT22;13082;52.374;4.946;2023-02-04T10:27:51;9.10;99.90
25092;DHT22;13082;52.374;4.946;2023-02-04T10:30:36;9.10;99.90
25092;DHT22;13082;52.374;4.946;2023-02-04T10:33:22;9.20;99.90
25092;DHT22;13082;52.374;4.946;2023-02-04T10:35:50;9.20;99.90
25092;DHT22;13082;52.374;4.946;2023-02-04T10:38:17;9.30;99.90
25092;DHT22;13082;52.374;4.946;2023-02-04T10:40:43;9.30;99.90
25092;DHT22;13082;52.374;4.946;2023-02-04T10:43:15;9.40;99.90
25092;DHT22;13082;52.374;4.946;2023-02-04T10:45:45;9.40;99.90
25092;DHT22;13082;52.374;4.946;2023-02-04T10:48:16;9.50;99.90
25092;DHT22;13082;52.374;4.946;2023-02-04T10:50:42;9.50;99.90
25092;DHT22;13082;52.374;4.946;2023-02-04T10:53:09;9.50;99.90
25092;DHT22;13082;52.374;4.946;2023-02-04T10:55:54;9.50;99.90
25092;DHT22;13082;52.374;4.946;2023-02-04T10:58:27;9.50;99.90
25092;DHT22;13082;52.374;4.946;2023-02-04T11:00:53;9.50;99.90
25092;DHT22;13082;52.374;4.946;2023-02-04T11:03:24;9.50;99.90
25092;DHT22;13082;52.374;4.946;2023-02-04T11:05:51;9.50;99.90
25092;DHT22;13082;52.374;4.946;2023-02-04T11:11:15;9.50;99.90
25092;DHT22;13082;52.374;4.946;2023-02-04T11:13:58;9.50;99.90
25092;DHT22;13082;52.374;4.946;2023-02-04T11:16:27;9.50;99.90
25092;DHT22;13082;52.374;4.946;2023-02-04T11:18:58;9.60;99.90
25092;DHT22;13082;52.374;4.946;2023-02-04T11:26:37;9.70;99.90
25092;DHT22;13082;52.374;4.946;2023-02-04T11:31:41;9.60;99.90
25092;DHT22;13082;52.374;4.946;2023-02-04T11:39:21;9.70;99.90
25092;DHT22;13082;52.374;4.946;2023-02-04T11:41:48;9.70;99.90
25092;DHT22;13082;52.374;4.946;2023-02-04T11:44:15;9.60;99.90
25092;DHT22;13082;52.374;4.946;2023-02-04T11:46:42;9.60;99.90
25092;DHT22;13082;52.374;4.946;2023-02-04T11:49:18;9.60;99.90
25092;DHT22;13082;52.374;4.946;2023-02-04T11:51:44;9.60;99.90
25092;DHT22;13082;52.374;4.946;2023-02-04T11:54:11;9.60;99.90
25092;DHT22;13082;52.374;4.946;2023-02-04T11:56:37;9.60;99.90
25092;DHT22;13082;52.374;4.946;2023-02-04T11:59:03;9.70;99.90
25092;DHT22;13082;52.374;4.946;2023-02-04T12:01:33;9.70;99.90
25092;DHT22;13082;52.374;4.946;2023-02-04T12:04:00;9.80;99.90
25092;DHT22;13082;52.374;4.946;2023-02-04T12:06:29;9.80;99.90
25092;DHT22;13082;52.374;4.946;2023-02-04T12:09:23;9.90;99.90
25092;DHT22;13082;52.374;4.946;2023-02-04T12:11:52;9.90;99.90
25092;DHT22;13082;52.374;4.946;2023-02-04T12:14:19;9.80;99.90
25092;DHT22;13082;52.374;4.946;2023-02-04T12:16:47;9.80;99.90
25092;DHT22;13082;52.374;4.946;2023-02-04T12:19:16;9.80;99.90
25092;DHT22;13082;52.374;4.946;2023-02-04T12:21:41;9.80;99.90
25092;DHT22;13082;52.374;4.946;2023-02-04T12:24:07;9.80;99.90
25092;DHT22;13082;52.374;4.946;2023-02-04T12:26:33;9.80;99.90
25092;DHT22;13082;52.374;4.946;2023-02-04T12:28:59;9.90;99.90
25092;DHT22;13082;52.374;4.946;2023-02-04T12:31:28;10.10;99.90
25092;DHT22;13082;52.374;4.946;2023-02-04T12:33:53;10.30;99.90
25092;DHT22;13082;52.374;4.946;2023-02-04T12:36:19;10.60;99.90
25092;DHT22;13082;52.374;4.946;2023-02-04T12:38:45;10.70;99.90
25092;DHT22;13082;52.374;4.946;2023-02-04T12:41:11;10.80;99.90
25092;DHT22;13082;52.374;4.946;2023-02-04T12:43:36;10.90;99.90
25092;DHT22;13082;52.374;4.946;2023-02-04T12:46:02;10.90;99.90
25092;DHT22;13082;52.374;4.946;2023-02-04T12:48:28;10.90;99.90
25092;DHT22;13082;52.374;4.946;2023-02-04T12:50:53;10.90;99.90
25092;DHT22;13082;52.374;4.946;2023-02-04T12:53:19;10.90;99.90
25092;DHT22;13082;52.374;4.946;2023-02-04T12:55:45;10.90;99.90
25092;DHT22;13082;52.374;4.946;2023-02-04T12:58:10;10.90;99.90
25092;DHT22;13082;52.374;4.946;2023-02-04T13:00:36;10.90;99.90
25092;DHT22;13082;52.374;4.946;2023-02-04T13:03:02;10.80;99.90
25092;DHT22;13082;52.374;4.946;2023-02-04T13:05:28;10.80;99.90
25092;DHT22;13082;52.374;4.946;2023-02-04T13:07:53;10.80;99.90
25092;DHT22;13082;52.374;4.946;2023-02-04T13:10:19;10.80;99.90
25092;DHT22;13082;52.374;4.946;2023-02-04T13:12:46;10.70;99.90
25092;DHT22;13082;52.374;4.946;2023-02-04T13:15:12;10.70;99.90
25092;DHT22;13082;52.374;4.946;2023-02-04T13:17:37;10.70;99.90
25092;DHT22;13082;52.374;4.946;2023-02-04T13:20:03;10.60;99.90
25092;DHT22;13082;52.374;4.946;2023-02-04T13:22:30;10.70;99.90
25092;DHT22;13082;52.374;4.946;2023-02-04T13:24:55;10.60;99.90
25092;DHT22;13082;52.374;4.946;2023-02-04T13:27:21;10.50;99.90
25092;DHT22;13082;52.374;4.946;2023-02-04T13:29:46;10.50;99.90
25092;DHT22;13082;52.374;4.946;2023-02-04T13:32:12;10.50;99.90
25092;DHT22;13082;52.374;4.946;2023-02-04T13:34:38;10.40;99.90
25092;DHT22;13082;52.374;4.946;2023-02-04T13:37:03;10.40;99.90
25092;DHT22;13082;52.374;4.946;2023-02-04T13:39:29;10.40;99.90
25092;DHT22;13082;52.374;4.946;2023-02-04T13:41:54;10.30;99.90
25092;DHT22;13082;52.374;4.946;2023-02-04T13:44:20;10.20;99.90
25092;DHT22;13082;52.374;4.946;2023-02-04T13:46:45;10.20;99.90
25092;DHT22;13082;52.374;4.946;2023-02-04T13:49:11;10.20;99.90
25092;DHT22;13082;52.374;4.946;2023-02-04T13:51:37;10.20;99.90
25092;DHT22;13082;52.374;4.946;2023-02-04T13:54:02;10.20;99.90
25092;DHT22;13082;52.374;4.946;2023-02-04T13:56:28;10.30;99.90
25092;DHT22;13082;52.374;4.946;2023-02-04T13:58:55;10.30;99.90
25092;DHT22;13082;52.374;4.946;2023-02-04T14:01:20;10.30;99.90
25092;DHT22;13082;52.374;4.946;2023-02-04T14:03:46;10.20;99.90
25092;DHT22;13082;52.374;4.946;2023-02-04T14:06:12;10.20;99.90
25092;DHT22;13082;52.374;4.946;2023-02-04T14:08:37;10.20;99.90
25092;DHT22;13082;52.374;4.946;2023-02-04T14:11:03;10.20;99.90
25092;DHT22;13082;52.374;4.946;2023-02-04T14:13:30;10.20;99.90
25092;DHT22;13082;52.374;4.946;2023-02-04T14:15:55;10.20;99.90
25092;DHT22;13082;52.374;4.946;2023-02-04T14:18:21;10.20;99.90
25092;DHT22;13082;52.374;4.946;2023-02-04T14:20:46;10.20;99.90
25092;DHT22;13082;52.374;4.946;2023-02-04T14:23:12;10.10;99.90
25092;DHT22;13082;52.374;4.946;2023-02-04T14:25:38;10.10;99.90
25092;DHT22;13082;52.374;4.946;2023-02-04T14:28:04;10.00;99.90
25092;DHT22;13082;52.374;4.946;2023-02-04T14:30:30;10.00;99.90
25092;DHT22;13082;52.374;4.946;2023-02-04T14:32:57;9.90;99.90
25092;DHT22;13082;52.374;4.946;2023-02-04T14:35:23;9.90;99.90
25092;DHT22;13082;52.374;4.946;2023-02-04T14:37:49;9.90;99.90
25092;DHT22;13082;52.374;4.946;2023-02-04T14:40:16;9.90;99.90
25092;DHT22;13082;52.374;4.946;2023-02-04T14:42:42;9.80;99.90
25092;DHT22;13082;52.374;4.946;2023-02-04T14:45:09;9.80;99.90
25092;DHT22;13082;52.374;4.946;2023-02-04T14:47:36;9.70;99.90
25092;DHT22;13082;52.374;4.946;2023-02-04T14:50:03;9.60;99.90
25092;DHT22;13082;52.374;4.946;2023-02-04T14:52:29;9.50;99.90
25092;DHT22;13082;52.374;4.946;2023-02-04T14:54:54;9.50;99.90
25092;DHT22;13082;52.374;4.946;2023-02-04T14:57:20;9.50;99.90
25092;DHT22;13082;52.374;4.946;2023-02-04T14:59:46;9.50;99.90
25092;DHT22;13082;52.374;4.946;2023-02-04T15:02:11;9.50;99.90
25092;DHT22;13082;52.374;4.946;2023-02-04T15:04:41;9.50;99.90
25092;DHT22;13082;52.374;4.946;2023-02-04T15:07:06;9.50;99.90
25092;DHT22;13082;52.374;4.946;2023-02-04T15:09:32;9.50;99.90
25092;DHT22;13082;52.374;4.946;2023-02-04T15:11:58;9.60;99.90
25092;DHT22;13082;52.374;4.946;2023-02-04T15:14:24;9.60;99.90
25092;DHT22;13082;52.374;4.946;2023-02-04T15:16:49;9.60;99.90
25092;DHT22;13082;52.374;4.946;2023-02-04T15:19:16;9.70;99.90
25092;DHT22;13082;52.374;4.946;2023-02-04T15:21:42;9.70;99.90
25092;DHT22;13082;52.374;4.946;2023-02-04T15:24:08;9.70;99.90
25092;DHT22;13082;52.374;4.946;2023-02-04T15:26:33;9.80;99.90
25092;DHT22;13082;52.374;4.946;2023-02-04T15:28:59;9.80;99.90
25092;DHT22;13082;52.374;4.946;2023-02-04T15:31:26;9.70;99.90
25092;DHT22;13082;52.374;4.946;2023-02-04T15:33:51;9.70;99.90
25092;DHT22;13082;52.374;4.946;2023-02-04T15:36:17;9.80;99.90
25092;DHT22;13082;52.374;4.946;2023-02-04T15:38:43;9.80;99.90
25092;DHT22;13082;52.374;4.946;2023-02-04T15:41:08;9.70;99.90
25092;DHT22;13082;52.374;4.946;2023-02-04T15:43:34;9.70;99.90
25092;DHT22;13082;52.374;4.946;2023-02-04T15:45:59;9.70;99.90
25092;DHT22;13082;52.374;4.946;2023-02-04T15:48:25;9.70;99.90
25092;DHT22;13082;52.374;4.946;2023-02-04T15:50:53;9.60;99.90
25092;DHT22;13082;52.374;4.946;2023-02-04T15:53:18;9.60;99.90
25092;DHT22;13082;52.374;4.946;2023-02-04T15:55:44;9.50;99.90
25092;DHT22;13082;52.374;4.946;2023-02-04T15:58:10;9.50;99.90
25092;DHT22;13082;52.374;4.946;2023-02-04T16:00:35;9.50;99.90